YLB weather

Lac La Biche Airport
Lac La Biche, Alberta, Canada

Public forecast

Using degrees Celsius for public forecast. Weather courtesy of forecast.io.

Closest aviation weather report (METAR) to Lac La Biche Airport

Closest report is CFB Cold Lake, 64.8 nm (120.0 km) ESE. Retrieved 2019/10/20 22:29 UTC (28 minutes ago):

CYOD 202229Z 32004KT 10SM VCSH SCT023 OVC035 02/00 A2982 RMK SC4SC4 CIG RAG SLP122

Closest aviation forecast (TAF) to Lac La Biche Airport

Closest forecast is CFB Cold Lake, 64.8 nm (120.0 km) ESE. Retrieved 2019/10/20 18:35 UTC (4 hours ago):

TAF CYOD 201730Z 2018/2118 25005KT P6SM FEW010 BKN030 FM202000 29008KT P6SM BKN030 TEMPO 2020/2102 BKN020 FM210200 VRB03KT P6SM SCT020 PROB30 2107/2118 3/4SM BR RMK NXT FCST BY 210000Z